Accueil
METAR-TAF:

METAR-TAF

Aéroports :

Aéroport de Deauville-Normandie

Deauville, France

latitude: 49-21-55N, longitude: 000-09-16E, altitude: 146 m

Observation

Le bulletin a été fait il y a 43 minutes, à 14:30 UTC
Vent 7 kt de est
Température 4°C
Humidité 75%
Pression 1034 hPa
Visibilité 10 km ou plus
pas de nuages en-dessous de 1500 mètres et pas de cumulonimbus.

METAR: LFRG 221430Z AUTO 10007KT CAVOK 04/00 Q1034 NOSIG

Heure: 16:13 (15:13 UTC)

Prévision

Le bulletin a été fait il y a 1 heure et 13 minutes, à 14:00 UTC
Prévision valable du 22 à 15 UTC au 22 à 24 UTC
Vent 8 kt de est/nord-est
Visibilité: 8000 m
Probabilité 40% :
Temporairement
du 22 à 22 UTC au 22 à 24 UTC
Visibilité: 3000 m
Nuages fragmentés à une hauteur de 300 ft
brume

TAF: LFRG 221400Z 2215/2224 07008KT 8000 NSC PROB40 TEMPO 2222/2224 3000 BR BKN003

Observations et prévisions météorologiques de plus de 4000 aéroports (messages METAR et TAF).

Les stations disponibles sont représentées par des disques jaunes et rouges sur la carte.

Passer la souris dessus pour voir le nom de la station.

Cliquer dessus pour voir les observations et prévisions météorologiques.

Pour changer de carte: cliquez sur les boutons verts avec une croix noire pour zoomer, sur le bouton vert avec un tiret pour effectuer un zoom arrière, ou sur les flèches vertes pour les cartes adjacentes.


METAR-TAF: